^^
Datos históricos de la estación: Murcia-Puente Tocinos
Diario Informe para Febrero 27, 2019 Unidades:  Ambas    Ingés   Métrico
Diario Semanal Mensual Anual
  Máxima: Mínima: Promedio:
Temperatura: 86.5 °F /  30.3 °C 68 °F /  20 °C 75.7 °F /  24.3 °C
Punto de rocio: 71.4 °F /  21.9 °C 61.2 °F /  16.2 °C 66.9 °F /  19.4 °C
Humedad: 91% 48.3% 76%
Velocidad viento: 19.2mph /  30.9km/h - 4.2mph /  6.7km/h
Racha viento: 35mph /  56.3km/h - -
Viento- - SSE
Presión: 30 in /  1015.2 hPa 29.9 in /  1011.3 hPa -
Precipitación: 0.63 in /  15.9 mm    
 
 
Tabla de datos para Febrero 27, 2019
Hora Temperatura Punto de rocio Presión Viento Velocidad viento Racha viento Humedad Intensidad lluvia(por hora) Nubes
00:04 77.4 °F /  25.2 °C 70.9 °F /  21.6 °C 29.9in /  1013.6hPa NNE 3.1mph /  5km/h 6.2mph /  10km/h 80.3% 0in /  0.0mm
00:09 77.4 °F /  25.2 °C 70.9 °F /  21.6 °C 29.9in /  1013.2hPa NNE 3.1mph /  5km/h 8.1mph /  13km/h 80.5% 0in /  0.0mm
00:14 77.2 °F /  25.1 °C 70.9 °F /  21.6 °C 29.9in /  1013.2hPa NNE 3.1mph /  5km/h 8mph /  12.9km/h 81% 0in /  0.0mm
00:19 77.2 °F /  25.1 °C 70.9 °F /  21.6 °C 29.9in /  1013.3hPa NNE 3.4mph /  5.4km/h 7mph /  11.3km/h 81% 0in /  0.0mm
00:24 77.2 °F /  25.1 °C 71.2 °F /  21.8 °C 29.9in /  1013.3hPa NE 4mph /  6.5km/h 8.7mph /  14km/h 81.9% 0in /  0.0mm
00:29 76.8 °F /  24.9 °C 70.9 °F /  21.6 °C 29.9in /  1013.3hPa NNE 4.4mph /  7.1km/h 9.2mph /  14.8km/h 82% 0in /  0.0mm
00:34 76.8 °F /  24.9 °C 70.9 °F /  21.6 °C 29.9in /  1013.3hPa NE 5.4mph /  8.7km/h 11.2mph /  18km/h 82.1% 0in /  0.0mm
00:39 76.6 °F /  24.8 °C 71.1 °F /  21.7 °C 29.9in /  1012.9hPa NE 5.7mph /  9.1km/h 12mph /  19.3km/h 83% 0.01in /  0.3mm
00:44 76.6 °F /  24.8 °C 71.2 °F /  21.8 °C 29.9in /  1012.9hPa NO 6.2mph /  10km/h 12mph /  19.3km/h 83.3% 0.01in /  0.3mm
00:49 76.5 °F /  24.7 °C 71.2 °F /  21.8 °C 29.9in /  1012.9hPa NNE 5.3mph /  8.6km/h 9.7mph /  15.6km/h 84% 0.01in /  0.3mm
00:54 76.5 °F /  24.7 °C 71.2 °F /  21.8 °C 29.9in /  1012.9hPa NNE 2.9mph /  4.7km/h 10mph /  16.1km/h 84.4% 0.02in /  0.5mm
00:59 76.1 °F /  24.5 °C 71.4 °F /  21.9 °C 29.9in /  1012.9hPa NNE 3.9mph /  6.2km/h 11.5mph /  18.5km/h 85.4% 0.02in /  0.5mm
01:04 75.7 °F /  24.3 °C 71.4 °F /  21.9 °C 29.9in /  1012.9hPa NNE 6.2mph /  10km/h 12mph /  19.3km/h 86.5% 0.02in /  0.5mm
01:09 75.6 °F /  24.2 °C 71.4 °F /  21.9 °C 29.9in /  1012.5hPa NNE 5.8mph /  9.3km/h 10.4mph /  16.7km/h 87% 0.02in /  0.5mm
01:14 75.6 °F /  24.2 °C 71.4 °F /  21.9 °C 29.9in /  1012.5hPa NE 4.7mph /  7.6km/h 13.8mph /  22.2km/h 87% 0.02in /  0.5mm
01:19 75.4 °F /  24.1 °C 71.2 °F /  21.8 °C 29.9in /  1012.5hPa NE 5mph /  8.1km/h 14mph /  22.5km/h 86.9% 0.02in /  0.5mm
01:24 75.4 °F /  24.1 °C 70.9 °F /  21.6 °C 29.9in /  1012.2hPa NE 5.9mph /  9.5km/h 10.4mph /  16.7km/h 86% 0.02in /  0.5mm
01:29 75.4 °F /  24.1 °C 70.9 °F /  21.6 °C 29.9in /  1012.2hPa NE 5.7mph /  9.2km/h 9mph /  14.5km/h 86% 0.02in /  0.5mm
01:34 75.4 °F /  24.1 °C 70.9 °F /  21.6 °C 29.9in /  1012.2hPa NE 5.2mph /  8.4km/h 7.4mph /  11.9km/h 86% 0.02in /  0.5mm
01:39 75.4 °F /  24.1 °C 71.2 °F /  21.8 °C 29.9in /  1012.0hPa ENE 4.7mph /  7.5km/h 7mph /  11.3km/h 86.9% 0.02in /  0.5mm
01:44 75.4 °F /  24.1 °C 71.2 °F /  21.8 °C 29.9in /  1012.0hPa ENE 3.1mph /  5km/h 3mph /  4.8km/h 87% 0.01in /  0.2mm
01:49 75.4 °F /  24.1 °C 71.2 °F /  21.8 °C 29.9in /  1012.5hPa NO 2.7mph /  4.4km/h 5.9mph /  9.5km/h 87% 0.01in /  0.2mm
01:54 75.2 °F /  24 °C 71.1 °F /  21.7 °C 29.9in /  1012.5hPa Oeste 1.8mph /  2.9km/h 6mph /  9.7km/h 87% 0.01in /  0.2mm
01:59 75.2 °F /  24 °C 71.1 °F /  21.7 °C 29.9in /  1012.5hPa OSO 2.1mph /  3.4km/h 5.2mph /  8.4km/h 87% 0in /  0.0mm
02:04 75.2 °F /  24 °C 71.1 °F /  21.7 °C 29.9in /  1012.5hPa SO 2.9mph /  4.7km/h 5mph /  8km/h 87% 0in /  0.0mm
02:09 75.2 °F /  24 °C 71.1 °F /  21.7 °C 29.9in /  1012.5hPa SO 2.7mph /  4.4km/h 5.4mph /  8.7km/h 87% 0in /  0.0mm
02:14 75.4 °F /  24.1 °C 71.2 °F /  21.8 °C 29.9in /  1012.5hPa OSO 2.4mph /  3.9km/h 6.2mph /  10km/h 87% 0in /  0.0mm
02:19 75.6 °F /  24.2 °C 71.1 °F /  21.7 °C 29.9in /  1012.5hPa OSO 2.6mph /  4.2km/h 6mph /  9.7km/h 86.2% 0in /  0.0mm
02:24 75.6 °F /  24.2 °C 71.1 °F /  21.7 °C 29.9in /  1012.4hPa OSO 3.1mph /  5km/h 5mph /  8km/h 86% 0in /  0.0mm
02:29 75.7 °F /  24.3 °C 71.2 °F /  21.8 °C 29.9in /  1012.4hPa OSO 2.7mph /  4.4km/h 4mph /  6.4km/h 86% 0in /  0.0mm
02:34 75.7 °F /  24.3 °C 71.2 °F /  21.8 °C 29.9in /  1012.4hPa SSO 1.8mph /  2.9km/h 4.6mph /  7.4km/h 86% 0in /  0.0mm
02:39 75.7 °F /  24.3 °C 71.4 °F /  21.9 °C 29.9in /  1012.1hPa Este 1.7mph /  2.7km/h 5mph /  8km/h 86% 0in /  0.0mm
02:44 75.7 °F /  24.3 °C 71.2 °F /  21.8 °C 29.9in /  1012.1hPa ESE 1.4mph /  2.2km/h 5.2mph /  8.4km/h 86% 0in /  0.0mm
02:49 75.6 °F /  24.2 °C 71.1 °F /  21.7 °C 29.9in /  1012.1hPa Este 1.7mph /  2.7km/h 5mph /  8km/h 86% 0in /  0.0mm
02:54 75.4 °F /  24.1 °C 71.1 °F /  21.7 °C 29.9in /  1011.9hPa Este 2.4mph /  3.9km/h 3.6mph /  5.8km/h 86.8% 0in /  0.0mm
02:59 75.4 °F /  24.1 °C 71.2 °F /  21.8 °C 29.9in /  1011.9hPa SE 2.3mph /  3.7km/h 4.6mph /  7.4km/h 87% 0in /  0.0mm
03:04 75.4 °F /  24.1 °C 71.2 °F /  21.8 °C 29.9in /  1012.1hPa SSE 2mph /  3.2km/h 5mph /  8km/h 87.3% 0in /  0.0mm
03:09 75.2 °F /  24 °C 71.1 °F /  21.7 °C 29.9in /  1012.1hPa Sur 2.1mph /  3.4km/h 5mph /  8km/h 87% 0in /  0.0mm
03:14 75 °F /  23.9 °C 71.1 °F /  21.7 °C 29.9in /  1012.1hPa Sur 2.4mph /  3.9km/h 5mph /  8km/h 87.1% 0in /  0.0mm
03:19 75 °F /  23.9 °C 71.2 °F /  21.8 °C 29.9in /  1012.1hPa Sur 1.7mph /  2.8km/h 2mph /  3.2km/h 88% 0in /  0.0mm
03:24 75 °F /  23.9 °C 71.2 °F /  21.8 °C 29.9in /  1011.6hPa Calm   5.2mph /  8.4km/h 87.8% 0in /  0.0mm
03:29 75.2 °F /  24 °C 71.1 °F /  21.7 °C 29.9in /  1011.6hPa ONO 0.4mph /  0.7km/h 5mph /  8km/h 87% 0in /  0.0mm
03:34 75.2 °F /  24 °C 71.1 °F /  21.7 °C 29.9in /  1011.6hPa Oeste 1.8mph /  2.9km/h 5mph /  8km/h 87% 0in /  0.0mm
03:39 75.2 °F /  24 °C 70.9 °F /  21.6 °C 29.9in /  1011.3hPa NO 1.4mph /  2.2km/h 3mph /  4.8km/h 86.6% 0in /  0.0mm
03:44 75.2 °F /  24 °C 70.9 °F /  21.6 °C 29.9in /  1011.3hPa Calm   6.4mph /  10.3km/h 86.5% 0in /  0.0mm
03:49 75.2 °F /  24 °C 71.2 °F /  21.8 °C 29.9in /  1011.5hPa SE 0.8mph /  1.3km/h 7mph /  11.3km/h 87.4% 0in /  0.0mm
03:54 75 °F /  23.9 °C 71.2 °F /  21.8 °C 29.9in /  1011.5hPa SE 2.9mph /  4.7km/h 6.9mph /  11.1km/h 88.2% 0in /  0.0mm
03:59 74.8 °F /  23.8 °C 71.4 °F /  21.9 °C 29.9in /  1011.5hPa SE 3.2mph /  5.2km/h 7.4mph /  11.9km/h 89% 0in /  0.0mm
04:04 74.7 °F /  23.7 °C 71.2 °F /  21.8 °C 29.9in /  1011.7hPa Este 4mph /  6.5km/h 7mph /  11.3km/h 89% 0in /  0.0mm
04:09 74.5 °F /  23.6 °C 71.1 °F /  21.7 °C 29.9in /  1011.7hPa ESE 3.9mph /  6.3km/h 6.2mph /  10km/h 89% 0in /  0.0mm
04:14 74.5 °F /  23.6 °C 71.2 °F /  21.8 °C 29.9in /  1011.7hPa SE 3.6mph /  5.8km/h 6mph /  9.7km/h 89.6% 0in /  0.0mm
04:19 74.5 °F /  23.6 °C 71.2 °F /  21.8 °C 29.9in /  1012.0hPa SSE 3.3mph /  5.3km/h 6mph /  9.7km/h 89.8% 0in /  0.0mm
04:24 74.5 °F /  23.6 °C 71.1 °F /  21.7 °C 29.9in /  1012.0hPa SSE 2.4mph /  3.9km/h 5mph /  8km/h 89% 0in /  0.0mm
04:29 74.5 °F /  23.6 °C 71.1 °F /  21.7 °C 29.9in /  1012.0hPa SSE 2.2mph /  3.6km/h 5.2mph /  8.4km/h 89.1% 0in /  0.0mm
04:34 74.7 °F /  23.7 °C 71.2 °F /  21.8 °C 29.9in /  1012.4hPa Sur 1.8mph /  2.9km/h 5.9mph /  9.5km/h 89% 0in /  0.0mm
04:39 74.8 °F /  23.8 °C 71.2 °F /  21.8 °C 29.9in /  1012.4hPa Sur 2.5mph /  4km/h 7.4mph /  11.9km/h 88.7% 0in /  0.0mm
04:44 74.8 °F /  23.8 °C 71.2 °F /  21.8 °C 29.9in /  1012.4hPa Sur 4.3mph /  6.9km/h 7mph /  11.3km/h 88.7% 0.01in /  0.3mm
04:49 74.8 °F /  23.8 °C 71.2 °F /  21.8 °C 29.9in /  1012.6hPa Sur 4.4mph /  7.1km/h 8.5mph /  13.7km/h 88.4% 0.03in /  0.8mm
04:54 74.8 °F /  23.8 °C 71.4 °F /  21.9 °C 29.9in /  1012.6hPa SO 4.7mph /  7.6km/h 9mph /  14.5km/h 89% 0.04in /  1.0mm
04:59 74.8 °F /  23.8 °C 71.4 °F /  21.9 °C 29.9in /  1012.6hPa Oeste 4.6mph /  7.4km/h 8mph /  12.9km/h 89% 0.04in /  1.0mm
05:04 74.8 °F /  23.8 °C 71.4 °F /  21.9 °C 29.9in /  1012.6hPa ONO 4.3mph /  6.9km/h 6mph /  9.7km/h 89.3% 0.04in /  1.0mm
05:09 74.8 °F /  23.8 °C 71.4 °F /  21.9 °C 29.9in /  1011.9hPa North 3.7mph /  6km/h 5.9mph /  9.5km/h 89.1% 0.04in /  1.0mm
05:14 74.7 °F /  23.7 °C 71.4 °F /  21.9 °C 29.9in /  1011.9hPa NE 2mph /  3.2km/h 6.9mph /  11.1km/h 90% 0.04in /  1.0mm
05:19 74.5 °F /  23.6 °C 71.4 °F /  21.9 °C 29.9in /  1011.9hPa NE 2.2mph /  3.6km/h 7mph /  11.3km/h 90% 0.04in /  1.0mm
05:24 74.3 °F /  23.5 °C 71.2 °F /  21.8 °C 29.9in /  1011.8hPa Oeste 2.9mph /  4.7km/h 6.2mph /  10km/h 90% 0.04in /  1.0mm
05:29 74.3 °F /  23.5 °C 71.2 °F /  21.8 °C 29.9in /  1011.8hPa SO 2.9mph /  4.7km/h 6.9mph /  11.1km/h 90% 0.04in /  1.0mm
05:34 74.1 °F /  23.4 °C 71.1 °F /  21.7 °C 29.9in /  1012.3hPa SO 3.1mph /  5km/h 7mph /  11.3km/h 90% 0.04in /  1.0mm
05:39 74.1 °F /  23.4 °C 71.1 °F /  21.7 °C 29.9in /  1012.3hPa OSO 3.2mph /  5.2km/h 6.2mph /  10km/h 90% 0.04in /  1.0mm
05:44 74.3 °F /  23.5 °C 71.1 °F /  21.7 °C 29.9in /  1012.3hPa OSO 3.6mph /  5.8km/h 9.2mph /  14.8km/h 89.7% 0.04in /  1.0mm
05:49 74.5 °F /  23.6 °C 70.9 °F /  21.6 °C 29.9in /  1012.3hPa Oeste 3.6mph /  5.8km/h 9.2mph /  14.8km/h 89% 0.03in /  0.7mm
05:54 74.5 °F /  23.6 °C 71.1 °F /  21.7 °C 29.9in /  1012.1hPa OSO 3.6mph /  5.8km/h 8mph /  12.9km/h 89% 0.01in /  0.2mm
05:59 74.7 °F /  23.7 °C 71.2 °F /  21.8 °C 29.9in /  1012.1hPa OSO 3.7mph /  6km/h 7mph /  11.3km/h 89% 0in /  0.0mm
06:04 74.7 °F /  23.7 °C 71.2 °F /  21.8 °C 29.9in /  1012.2hPa Oeste 4mph /  6.5km/h 6mph /  9.7km/h 89% 0in /  0.0mm
06:09 74.7 °F /  23.7 °C 71.1 °F /  21.7 °C 29.9in /  1012.2hPa ONO 3.5mph /  5.6km/h 8.1mph /  13km/h 88.3% 0in /  0.0mm
06:14 74.5 °F /  23.6 °C 70 °F /  21.1 °C 29.9in /  1012.2hPa ONO 2mph /  3.2km/h 8.5mph /  13.7km/h 86.3% 0in /  0.0mm
06:19 74.3 °F /  23.5 °C 69.1 °F /  20.6 °C 29.9in /  1012.3hPa ONO 3.1mph /  5km/h 11.5mph /  18.5km/h 84.1% 0in /  0.0mm
06:24 74.1 °F /  23.4 °C 68.4 °F /  20.2 °C 29.9in /  1012.3hPa Oeste 5.9mph /  9.5km/h 12mph /  19.3km/h 82.2% 0in /  0.0mm
06:29 73.9 °F /  23.3 °C 67.6 °F /  19.8 °C 29.9in /  1012.3hPa OSO 5.5mph /  8.8km/h 9mph /  14.5km/h 80.9% 0in /  0.0mm
06:34 73.9 °F /  23.3 °C 67.5 °F /  19.7 °C 29.9in /  1012.7hPa ONO 4.3mph /  6.9km/h 7.4mph /  11.9km/h 80.2% 0in /  0.0mm
06:39 73.9 °F /  23.3 °C 66.7 °F /  19.3 °C 29.9in /  1012.7hPa Oeste 4mph /  6.4km/h 10.7mph /  17.2km/h 78.3% 0in /  0.0mm
06:44 73.8 °F /  23.2 °C 65.5 °F /  18.6 °C 29.9in /  1012.7hPa ONO 3.1mph /  5km/h 11mph /  17.7km/h 75.4% 0in /  0.0mm
06:49 73.6 °F /  23.1 °C 65.1 °F /  18.4 °C 29.9in /  1012.7hPa OSO 3.7mph /  6km/h 10mph /  16.1km/h 75% 0in /  0.0mm
06:54 73.4 °F /  23 °C 65.3 °F /  18.5 °C 29.9in /  1012.7hPa Oeste 5.4mph /  8.7km/h 7.4mph /  11.9km/h 75.6% 0in /  0.0mm
06:59 73.4 °F /  23 °C 65.5 °F /  18.6 °C 29.9in /  1012.7hPa ONO 4.7mph /  7.5km/h 7mph /  11.3km/h 76% 0in /  0.0mm
07:04 73.2 °F /  22.9 °C 65.3 °F /  18.5 °C 29.9in /  1012.8hPa SSO 3.1mph /  5km/h 5.9mph /  9.5km/h 76% 0in /  0.0mm
07:09 73.2 °F /  22.9 °C 65.3 °F /  18.5 °C 29.9in /  1012.8hPa SSO 3.1mph /  5km/h 6.9mph /  11.1km/h 76% 0in /  0.0mm
07:14 73.2 °F /  22.9 °C 64.8 °F /  18.2 °C 29.9in /  1012.8hPa SSO 3.1mph /  5km/h 7.6mph /  12.2km/h 75% 0in /  0.0mm
07:19 73.2 °F /  22.9 °C 64.6 °F /  18.1 °C 29.9in /  1012.9hPa SO 3.4mph /  5.5km/h 8mph /  12.9km/h 74.4% 0in /  0.0mm
07:24 73.2 °F /  22.9 °C 64.4 °F /  18 °C 29.9in /  1012.9hPa SO 4.3mph /  6.9km/h 6mph /  9.7km/h 74% 0in /  0.0mm
07:29 73.4 °F /  23 °C 64.4 °F /  18 °C 29.9in /  1012.9hPa SO 4.2mph /  6.8km/h 8.5mph /  13.7km/h 73.7% 0in /  0.0mm
07:34 73.2 °F /  22.9 °C 63.5 °F /  17.5 °C 29.9in /  1013.1hPa OSO 4mph /  6.5km/h 9mph /  14.5km/h 71.6% 0in /  0.0mm
07:39 73.4 °F /  23 °C 63.3 °F /  17.4 °C 29.9in /  1013.1hPa OSO 4.3mph /  7km/h 10.4mph /  16.7km/h 71% 0in /  0.0mm
07:44 73.4 °F /  23 °C 63.5 °F /  17.5 °C 29.9in /  1013.1hPa OSO 5.2mph /  8.4km/h 10mph /  16.1km/h 71.1% 0in /  0.0mm
07:49 73.4 °F /  23 °C 63.7 °F /  17.6 °C 29.9in /  1013.1hPa ONO 4.7mph /  7.5km/h 7mph /  11.3km/h 71.6% 0in /  0.0mm
07:54 73.4 °F /  23 °C 63.7 °F /  17.6 °C 29.9in /  1013.0hPa OSO 3.1mph /  5km/h 9.2mph /  14.8km/h 71.8% 0in /  0.0mm
07:59 73.4 °F /  23 °C 63.5 °F /  17.5 °C 29.9in /  1013.0hPa OSO 3.5mph /  5.6km/h 9mph /  14.5km/h 71.3% 0in /  0.0mm
08:04 73.4 °F /  23 °C 63.3 °F /  17.4 °C 29.9in /  1013.0hPa SO 4.3mph /  6.9km/h 9mph /  14.5km/h 71% 0in /  0.0mm
08:09 73.4 °F /  23 °C 63.3 °F /  17.4 °C 29.9in /  1013.0hPa OSO 4.1mph /  6.6km/h 7mph /  11.3km/h 71% 0in /  0.0mm
08:14 73.4 °F /  23 °C 63.5 °F /  17.5 °C 29.9in /  1013.0hPa OSO 3.6mph /  5.8km/h 7mph /  11.3km/h 71.1% 0in /  0.0mm
08:19 73.6 °F /  23.1 °C 63.9 °F /  17.7 °C 29.9in /  1013.0hPa OSO 3.8mph /  6.1km/h 8.1mph /  13km/h 71.7% 0in /  0.0mm
08:24 73.6 °F /  23.1 °C 63.7 °F /  17.6 °C 29.9in /  1013.0hPa OSO 4.3mph /  6.9km/h 8mph /  12.9km/h 71.1% 0in /  0.0mm
08:29 73.8 °F /  23.2 °C 63.3 °F /  17.4 °C 29.9in /  1013.0hPa Oeste 4.3mph /  6.9km/h 9.2mph /  14.8km/h 70.1% 0in /  0.0mm
08:34 73.8 °F /  23.2 °C 63.5 °F /  17.5 °C 29.9in /  1013.1hPa Oeste 4.3mph /  6.9km/h 9.2mph /  14.8km/h 70% 0in /  0.0mm
08:39 73.9 °F /  23.3 °C 63.5 °F /  17.5 °C 29.9in /  1013.1hPa Oeste 4.4mph /  7.1km/h 9mph /  14.5km/h 70% 0in /  0.0mm
08:44 73.9 °F /  23.3 °C 63.5 °F /  17.5 °C 29.9in /  1013.1hPa OSO 4.7mph /  7.6km/h 8.5mph /  13.7km/h 70% 0in /  0.0mm
08:49 73.8 °F /  23.2 °C 63.3 °F /  17.4 °C 29.9in /  1013.1hPa OSO 4.6mph /  7.4km/h 9mph /  14.5km/h 70% 0in /  0.0mm
08:54 73.8 °F /  23.2 °C 63.3 °F /  17.4 °C 29.9in /  1013.0hPa OSO 4.3mph /  6.9km/h 8.1mph /  13km/h 70% 0in /  0.0mm
08:59 73.8 °F /  23.2 °C 63.3 °F /  17.4 °C 29.9in /  1013.0hPa Oeste 4.6mph /  7.4km/h 8.5mph /  13.7km/h 70% 0in /  0.0mm
09:04 73.6 °F /  23.1 °C 63.3 °F /  17.4 °C 29.9in /  1013.0hPa Oeste 5.2mph /  8.4km/h 9mph /  14.5km/h 70% 0in /  0.0mm
09:09 73.6 °F /  23.1 °C 63.5 °F /  17.5 °C 29.9in /  1012.7hPa OSO 4.8mph /  7.7km/h 7mph /  11.3km/h 71% 0in /  0.0mm
09:14 73.6 °F /  23.1 °C 63.3 °F /  17.4 °C 29.9in /  1012.7hPa SO 3.6mph /  5.8km/h 6.2mph /  10km/h 70.3% 0in /  0.0mm
09:19 73.8 °F /  23.2 °C 63 °F /  17.2 °C 29.9in /  1012.8hPa SO 3.5mph /  5.6km/h 7.4mph /  11.9km/h 69% 0in /  0.0mm
09:24 73.9 °F /  23.3 °C 63.1 °F /  17.3 °C 29.9in /  1012.8hPa SSO 3.1mph /  5km/h 7mph /  11.3km/h 69% 0in /  0.0mm
09:29 74.1 °F /  23.4 °C 63 °F /  17.2 °C 29.9in /  1012.8hPa SSO 3.4mph /  5.4km/h 6.2mph /  10km/h 68.1% 0in /  0.0mm
09:34 74.1 °F /  23.4 °C 62.8 °F /  17.1 °C 29.9in /  1013.2hPa SO 4mph /  6.5km/h 6.9mph /  11.1km/h 67.7% 0in /  0.0mm
09:39 74.3 °F /  23.5 °C 62.6 °F /  17 °C 29.9in /  1013.2hPa SSO 4mph /  6.5km/h 7mph /  11.3km/h 67% 0in /  0.0mm
09:44 74.3 °F /  23.5 °C 62.6 °F /  17 °C 29.9in /  1013.2hPa SSO 4mph /  6.5km/h 9.2mph /  14.8km/h 67% 0in /  0.0mm
09:49 74.5 °F /  23.6 °C 62.8 °F /  17.1 °C 29.9in /  1013.2hPa SSO 4.4mph /  7.1km/h 9mph /  14.5km/h 66.8% 0in /  0.0mm
09:54 74.7 °F /  23.7 °C 63 °F /  17.2 °C 29.9in /  1013.0hPa SSO 5.4mph /  8.7km/h 9.2mph /  14.8km/h 66.8% 0in /  0.0mm
09:59 74.8 °F /  23.8 °C 63 °F /  17.2 °C 29.9in /  1013.0hPa SSO 5.3mph /  8.6km/h 9mph /  14.5km/h 66.9% 0in /  0.0mm
10:04 75 °F /  23.9 °C 63 °F /  17.2 °C 29.9in /  1013.0hPa SSO 5.2mph /  8.4km/h 8.7mph /  14km/h 66.2% 0in /  0.0mm
10:09 75.6 °F /  24.2 °C 63 °F /  17.2 °C 29.9in /  1012.8hPa SSO 5mph /  8km/h 9.2mph /  14.8km/h 65.1% 0in /  0.0mm
10:14 75.7 °F /  24.3 °C 63 °F /  17.2 °C 29.9in /  1012.8hPa OSO 4.3mph /  6.9km/h 9mph /  14.5km/h 64.6% 0in /  0.0mm
10:19 75.9 °F /  24.4 °C 63 °F /  17.2 °C 29.9in /  1012.9hPa Oeste 4.3mph /  6.9km/h 8.1mph /  13km/h 64.2% 0in /  0.0mm
10:24 76.3 °F /  24.6 °C 63.3 °F /  17.4 °C 29.9in /  1012.9hPa Oeste 4.3mph /  6.9km/h 8mph /  12.9km/h 64.5% 0in /  0.0mm
10:29 76.3 °F /  24.6 °C 63.3 °F /  17.4 °C 29.9in /  1012.9hPa NO 4.1mph /  6.6km/h 7.4mph /  11.9km/h 64.2% 0in /  0.0mm
10:34 76.5 °F /  24.7 °C 63.3 °F /  17.4 °C 29.9in /  1013.2hPa OSO 3.6mph /  5.8km/h 8.1mph /  13km/h 64% 0in /  0.0mm
10:39 76.6 °F /  24.8 °C 63.5 °F /  17.5 °C 29.9in /  1013.2hPa SO 3.7mph /  6km/h 8.1mph /  13km/h 64% 0in /  0.0mm
10:44 76.6 °F /  24.8 °C 63.7 °F /  17.6 °C 29.9in /  1013.2hPa SO 4mph /  6.5km/h 8mph /  12.9km/h 64% 0in /  0.0mm
10:49 77.4 °F /  25.2 °C 63.9 °F /  17.7 °C 29.9in /  1013.2hPa OSO 4mph /  6.5km/h 7mph /  11.3km/h 63.3% 0in /  0.0mm
10:54 77.5 °F /  25.3 °C 64 °F /  17.8 °C 29.9in /  1013.1hPa Oeste 4mph /  6.5km/h 7mph /  11.3km/h 62.9% 0in /  0.0mm
10:59 78.3 °F /  25.7 °C 64 °F /  17.8 °C 29.9in /  1013.1hPa OSO 4.1mph /  6.6km/h 9.7mph /  15.6km/h 61.9% 0in /  0.0mm
11:04 78.4 °F /  25.8 °C 64 °F /  17.8 °C 29.9in /  1013.1hPa SSO 4.3mph /  6.9km/h 10mph /  16.1km/h 61.1% 0in /  0.0mm
11:09 78.6 °F /  25.9 °C 63.9 °F /  17.7 °C 29.9in /  1013.1hPa Oeste 4.5mph /  7.3km/h 9mph /  14.5km/h 60.5% 0in /  0.0mm
11:14 79.2 °F /  26.2 °C 64.2 °F /  17.9 °C 29.9in /  1013.1hPa SO 5.2mph /  8.4km/h 8.1mph /  13km/h 60.4% 0in /  0.0mm
11:19 79.3 °F /  26.3 °C 64.2 °F /  17.9 °C 29.9in /  1013.3hPa Oeste 4.6mph /  7.4km/h 8mph /  12.9km/h 60% 0in /  0.0mm
11:24 80.1 °F /  26.7 °C 64.2 °F /  17.9 °C 29.9in /  1013.3hPa SO 3.1mph /  5km/h 7.4mph /  11.9km/h 58.8% 0in /  0.0mm
11:29 80.1 °F /  26.7 °C 64.4 °F /  18 °C 29.9in /  1013.3hPa OSO 3.2mph /  5.2km/h 9.2mph /  14.8km/h 59.1% 0in /  0.0mm
11:34 80.1 °F /  26.7 °C 64.4 °F /  18 °C 29.9in /  1013.3hPa OSO 3.6mph /  5.8km/h 10.4mph /  16.7km/h 58.8% 0in /  0.0mm
11:39 80.1 °F /  26.7 °C 64.4 °F /  18 °C 29.9in /  1013.3hPa ONO 4mph /  6.5km/h 10mph /  16.1km/h 58.8% 0in /  0.0mm
11:44 80.2 °F /  26.8 °C 64.8 °F /  18.2 °C 29.9in /  1013.3hPa OSO 5.2mph /  8.4km/h 7mph /  11.3km/h 59% 0in /  0.0mm
11:49 80.8 °F /  27.1 °C 64.8 °F /  18.2 °C 29.9in /  1013.3hPa Sur 4.8mph /  7.8km/h 9.7mph /  15.6km/h 58.4% 0in /  0.0mm
11:54 81.1 °F /  27.3 °C 64.9 °F /  18.3 °C 29.9in /  1013.0hPa Sur 4mph /  6.5km/h 10mph /  16.1km/h 58% 0in /  0.0mm
11:59 81.3 °F /  27.4 °C 65.3 °F /  18.5 °C 29.9in /  1013.0hPa SSO 4.4mph /  7.1km/h 10mph /  16.1km/h 58.5% 0in /  0.0mm
12:04 81.3 °F /  27.4 °C 65.3 °F /  18.5 °C 29.9in /  1013.0hPa SSO 5.4mph /  8.7km/h 10mph /  16.1km/h 58.4% 0in /  0.0mm
12:09 81.7 °F /  27.6 °C 65.7 °F /  18.7 °C 29.9in /  1012.7hPa SO 5.2mph /  8.4km/h 8.1mph /  13km/h 58.6% 0in /  0.0mm
12:14 81.7 °F /  27.6 °C 65.3 °F /  18.5 °C 29.9in /  1012.7hPa SO 4.7mph /  7.6km/h 8.1mph /  13km/h 57.6% 0in /  0.0mm
12:19 81.9 °F /  27.7 °C 65.5 °F /  18.6 °C 29.9in /  1012.7hPa SSO 4.6mph /  7.4km/h 6mph /  9.7km/h 57.6% 0in /  0.0mm
12:24 82 °F /  27.8 °C 65.7 °F /  18.7 °C 29.9in /  1012.7hPa SO 4.3mph /  6.9km/h 6.2mph /  10km/h 57.5% 0in /  0.0mm
12:29 82.6 °F /  28.1 °C 65.7 °F /  18.7 °C 29.9in /  1012.7hPa ESE 3.8mph /  6.1km/h 6mph /  9.7km/h 56.7% 0in /  0.0mm
12:34 83.5 °F /  28.6 °C 65.8 °F /  18.8 °C 29.9in /  1012.7hPa ENE 2.4mph /  3.9km/h 6.9mph /  11.1km/h 55.5% 0in /  0.0mm
12:39 83.7 °F /  28.7 °C 65.8 °F /  18.8 °C 29.9in /  1012.6hPa ONO 2.5mph /  4.1km/h 7mph /  11.3km/h 54.9% 0in /  0.0mm
12:44 83.8 °F /  28.8 °C 65.5 °F /  18.6 °C 29.9in /  1012.6hPa Sur 2.9mph /  4.7km/h 7.4mph /  11.9km/h 54.1% 0in /  0.0mm
12:49 83.8 °F /  28.8 °C 65.7 °F /  18.7 °C 29.9in /  1012.6hPa SE 2.9mph /  4.7km/h 7mph /  11.3km/h 54.4% 0in /  0.0mm
12:54 84.2 °F /  29 °C 65.8 °F /  18.8 °C 29.9in /  1012.6hPa ESE 2.9mph /  4.7km/h 5mph /  8km/h 54% 0in /  0.0mm
12:59 84.7 °F /  29.3 °C 66 °F /  18.9 °C 29.9in /  1012.6hPa SSO 2.6mph /  4.2km/h 8.1mph /  13km/h 53.4% 0in /  0.0mm
13:04 84.9 °F /  29.4 °C 65.8 °F /  18.8 °C 29.9in /  1012.7hPa SE 2mph /  3.2km/h 8.1mph /  13km/h 52.8% 0in /  0.0mm
13:09 84.7 °F /  29.3 °C 65.7 °F /  18.7 °C 29.9in /  1012.7hPa ESE 2.5mph /  4.1km/h 8.5mph /  13.7km/h 52.8% 0in /  0.0mm
13:14 84.7 °F /  29.3 °C 66 °F /  18.9 °C 29.9in /  1012.7hPa NE 4mph /  6.5km/h 9mph /  14.5km/h 53.5% 0in /  0.0mm
13:19 84.9 °F /  29.4 °C 66 °F /  18.9 °C 29.9in /  1012.7hPa SE 4.1mph /  6.6km/h 11.8mph /  19km/h 53.3% 0in /  0.0mm
13:24 84.9 °F /  29.4 °C 65.8 °F /  18.8 °C 29.9in /  1012.6hPa SE 4.3mph /  6.9km/h 12mph /  19.3km/h 52.8% 0in /  0.0mm
13:29 84.9 °F /  29.4 °C 65.5 °F /  18.6 °C 29.9in /  1012.6hPa SE 4.8mph /  7.8km/h 12mph /  19.3km/h 52.5% 0in /  0.0mm
13:34 84.7 °F /  29.3 °C 65.7 °F /  18.7 °C 29.9in /  1012.6hPa SSE 6.4mph /  10.3km/h 9mph /  14.5km/h 53% 0in /  0.0mm
13:39 84.7 °F /  29.3 °C 65.8 °F /  18.8 °C 29.9in /  1012.6hPa SSE 5.5mph /  8.9km/h 8.1mph /  13km/h 53% 0in /  0.0mm
13:44 84.9 °F /  29.4 °C 65.7 °F /  18.7 °C 29.9in /  1012.6hPa SE 3.1mph /  5km/h 11.8mph /  19km/h 52.6% 0in /  0.0mm
13:49 84.9 °F /  29.4 °C 65.7 °F /  18.7 °C 29.9in /  1012.6hPa ESE 3.7mph /  6km/h 12mph /  19.3km/h 52.7% 0in /  0.0mm
13:54 84.9 °F /  29.4 °C 65.3 °F /  18.5 °C 29.9in /  1012.3hPa Este 5.4mph /  8.7km/h 10mph /  16.1km/h 52.1% 0in /  0.0mm
13:59 85.3 °F /  29.6 °C 65.5 °F /  18.6 °C 29.9in /  1012.3hPa Este 5.4mph /  8.7km/h 10mph /  16.1km/h 51.8% 0in /  0.0mm
14:04 85.3 °F /  29.6 °C 65.3 °F /  18.5 °C 29.9in /  1012.3hPa ENE 5.4mph /  8.7km/h 10mph /  16.1km/h 51.2% 0in /  0.0mm
14:09 85.3 °F /  29.6 °C 64.9 °F /  18.3 °C 29.9in /  1012.2hPa NE 5.7mph /  9.1km/h 12.7mph /  20.4km/h 50.7% 0in /  0.0mm
14:14 85.3 °F /  29.6 °C 65.1 °F /  18.4 °C 29.9in /  1012.2hPa NE 6.2mph /  10km/h 13mph /  20.9km/h 50.9% 0in /  0.0mm
14:19 85.6 °F /  29.8 °C 65.1 °F /  18.4 °C 29.9in /  1012.2hPa ENE 5.9mph /  9.5km/h 8.1mph /  13km/h 50.6% 0in /  0.0mm
14:24 85.6 °F /  29.8 °C 64.6 °F /  18.1 °C 29.9in /  1012.0hPa ESE 5.2mph /  8.4km/h 8mph /  12.9km/h 49.4% 0in /  0.0mm
14:29 85.6 °F /  29.8 °C 64.4 °F /  18 °C 29.9in /  1012.0hPa ENE 4.9mph /  7.9km/h 7mph /  11.3km/h 49% 0in /  0.0mm
14:34 86 °F /  30 °C 64.2 °F /  17.9 °C 29.9in /  1012.0hPa ENE 4mph /  6.5km/h 7mph /  11.3km/h 48.3% 0in /  0.0mm
14:39 86.4 °F /  30.2 °C 64.8 °F /  18.2 °C 29.9in /  1011.8hPa Este 4mph /  6.5km/h 8.5mph /  13.7km/h 48.5% 0in /  0.0mm
14:44 86.5 °F /  30.3 °C 66.4 °F /  19.1 °C 29.9in /  1011.8hPa ENE 4mph /  6.5km/h 14.7mph /  23.7km/h 51.2% 0in /  0.0mm
14:49 86.4 °F /  30.2 °C 66.6 °F /  19.2 °C 29.9in /  1011.8hPa ENE 4.8mph /  7.8km/h 15mph /  24.1km/h 51.6% 0in /  0.0mm
14:54 86.4 °F /  30.2 °C 66.4 °F /  19.1 °C 29.9in /  1011.5hPa NE 6.9mph /  11.1km/h 15mph /  24.1km/h 51.4% 0in /  0.0mm
14:59 86.4 °F /  30.2 °C 66.6 °F /  19.2 °C 29.9in /  1011.5hPa Este 7.3mph /  11.7km/h 16.3mph /  26.2km/h 51.5% 0in /  0.0mm
15:04 86.5 °F /  30.3 °C 66.4 °F /  19.1 °C 29.9in /  1011.7hPa Este 8.1mph /  13km/h 16mph /  25.7km/h 51.3% 0in /  0.0mm
15:09 86.4 °F /  30.2 °C 66 °F /  18.9 °C 29.9in /  1011.7hPa ENE 7.9mph /  12.7km/h 15.2mph /  24.5km/h 50.9% 0in /  0.0mm
15:14 85.8 °F /  29.9 °C 65.8 °F /  18.8 °C 29.9in /  1011.7hPa NE 7.4mph /  11.9km/h 19mph /  30.6km/h 51.3% 0in /  0.0mm
15:19 85.8 °F /  29.9 °C 65.8 °F /  18.8 °C 29.9in /  1011.7hPa ENE 7.9mph /  12.7km/h 20.1mph /  32.3km/h 51.2% 0in /  0.0mm
15:24 85.5 °F /  29.7 °C 65.7 °F /  18.7 °C 29.9in /  1011.3hPa Este 9.2mph /  14.8km/h 21mph /  33.8km/h 51.8% 0in /  0.0mm
15:29 85.1 °F /  29.5 °C 65.5 °F /  18.6 °C 29.9in /  1011.3hPa NE 9.3mph /  15km/h 21mph /  33.8km/h 52% 0in /  0.0mm
15:34 84.7 °F /  29.3 °C 65.7 °F /  18.7 °C 29.9in /  1011.3hPa ENE 9.7mph /  15.6km/h 18.4mph /  29.6km/h 52.8% 0in /  0.0mm
15:39 84.4 °F /  29.1 °C 65.5 °F /  18.6 °C 29.9in /  1011.3hPa ENE 9.4mph /  15.2km/h 18mph /  29km/h 53.2% 0in /  0.0mm
15:44 84 °F /  28.9 °C 65.7 °F /  18.7 °C 29.9in /  1011.3hPa ENE 8.7mph /  14km/h 17.3mph /  27.8km/h 54% 0in /  0.0mm
15:49 83.8 °F /  28.8 °C 65.7 °F /  18.7 °C 29.9in /  1011.6hPa ENE 8.8mph /  14.2km/h 17.8mph /  28.6km/h 54.5% 0in /  0.0mm
15:54 83.7 °F /  28.7 °C 66.2 °F /  19 °C 29.9in /  1011.6hPa NE 9.2mph /  14.8km/h 22.5mph /  36.2km/h 55.9% 0in /  0.0mm
15:59 82.9 °F /  28.3 °C 66 °F /  18.9 °C 29.9in /  1011.6hPa NE 10.2mph /  16.4km/h 34.4mph /  55.4km/h 56.6% 0in /  0.0mm
16:04 80.6 °F /  27 °C 62.1 °F /  16.7 °C 29.9in /  1011.8hPa NE 12.3mph /  19.8km/h 35mph /  56.3km/h 53.3% 0in /  0.0mm
16:09 78.8 °F /  26 °C 61.2 °F /  16.2 °C 29.9in /  1011.8hPa NE 14.1mph /  22.7km/h 32.2mph /  51.8km/h 54.7% 0in /  0.0mm
16:14 77 °F /  25 °C 61.7 °F /  16.5 °C 29.9in /  1011.8hPa ENE 19.2mph /  30.9km/h 32mph /  51.5km/h 59.2% 0.03in /  0.8mm
16:19 75 °F /  23.9 °C 62.8 °F /  17.1 °C 29.9in /  1013.1hPa ESE 16.7mph /  26.9km/h 18.4mph /  29.6km/h 66% 0.06in /  1.6mm
16:24 72 °F /  22.2 °C 63.1 °F /  17.3 °C 29.9in /  1013.1hPa Este 10mph /  16.1km/h 19.7mph /  31.7km/h 73.8% 0.14in /  3.6mm
16:29 70.2 °F /  21.2 °C 63.5 °F /  17.5 °C 29.9in /  1013.1hPa Este 9.9mph /  16km/h 20mph /  32.2km/h 79.6% 0.14in /  3.6mm
16:34 69.1 °F /  20.6 °C 63.5 °F /  17.5 °C 29.9in /  1013.1hPa ESE 9.7mph /  15.6km/h 16mph /  25.7km/h 82.6% 0.14in /  3.6mm
16:39 68.7 °F /  20.4 °C 64 °F /  17.8 °C 29.9in /  1013.1hPa Este 8.9mph /  14.3km/h 15mph /  24.1km/h 85.2% 0.18in /  4.6mm
16:44 68.5 °F /  20.3 °C 64.4 °F /  18 °C 29.9in /  1013.1hPa Sur 6.9mph /  11.1km/h 11.8mph /  19km/h 86.5% 0.2in /  5.2mm
16:49 68.5 °F /  20.3 °C 64.8 °F /  18.2 °C 29.9in /  1013.9hPa Sur 7.1mph /  11.4km/h 12.7mph /  20.4km/h 87.5% 0.25in /  6.4mm
16:54 68.5 °F /  20.3 °C 65.1 °F /  18.4 °C 29.9in /  1013.9hPa SSE 7.6mph /  12.2km/h 13mph /  20.9km/h 88.6% 0.3in /  7.7mm
16:59 68.9 °F /  20.5 °C 65.7 °F /  18.7 °C 29.9in /  1013.9hPa SE 7.8mph /  12.5km/h 14mph /  22.5km/h 89.7% 0.41in /  10.3mm
17:04 68.9 °F /  20.5 °C 65.8 °F /  18.8 °C 29.9in /  1013.9hPa SE 8.1mph /  13km/h 14mph /  22.5km/h 90% 0.46in /  11.8mm
17:09 68.4 °F /  20.2 °C 65.5 °F /  18.6 °C 29.9in /  1013.6hPa SSE 8.2mph /  13.2km/h 13mph /  20.9km/h 90.3% 0.48in /  12.3mm
17:14 68.4 °F /  20.2 °C 65.7 °F /  18.7 °C 29.9in /  1013.6hPa SSO 8.5mph /  13.7km/h 13mph /  20.9km/h 91% 0.48in /  12.3mm
17:19 68.4 °F /  20.2 °C 65.7 °F /  18.7 °C 29.9in /  1013.7hPa SSO 8.4mph /  13.5km/h 15mph /  24.1km/h 91% 0.48in /  12.3mm
17:24 68.4 °F /  20.2 °C 65.7 °F /  18.7 °C 29.9in /  1013.7hPa Sur 8.1mph /  13km/h 15mph /  24.1km/h 91% 0.44in /  11.2mm
17:29 68.2 °F /  20.1 °C 65.1 °F /  18.4 °C 29.9in /  1013.7hPa Sur 8.2mph /  13.2km/h 14mph /  22.5km/h 90% 0.41in /  10.3mm
17:34 68 °F /  20 °C 64.8 °F /  18.2 °C 29.9in /  1013.7hPa Sur 8.5mph /  13.7km/h 14mph /  22.5km/h 89.6% 0.41in /  10.5mm
17:39 68 °F /  20 °C 64.6 °F /  18.1 °C 29.9in /  1013.0hPa SSO 8.2mph /  13.2km/h 12mph /  19.3km/h 89.1% 0.41in /  10.5mm
17:44 68.2 °F /  20.1 °C 64.6 °F /  18.1 °C 29.9in /  1013.0hPa Sur 7.4mph /  11.9km/h 13.8mph /  22.2km/h 88.3% 0.37in /  9.5mm
17:49 68.5 °F /  20.3 °C 64.9 °F /  18.3 °C 29.9in /  1013.0hPa SO 7.1mph /  11.5km/h 14mph /  22.5km/h 88.3% 0.34in /  8.7mm
17:54 68.9 °F /  20.5 °C 65.7 °F /  18.7 °C 29.9in /  1013.0hPa NNO 6.4mph /  10.3km/h 9mph /  14.5km/h 89.4% 0.29in /  7.4mm
17:59 69.4 °F /  20.8 °C 66.4 °F /  19.1 °C 29.9in /  1013.0hPa Este 5mph /  8km/h 6mph /  9.7km/h 89.9% 0.24in /  6.2mm
18:04 69.4 °F /  20.8 °C 65.8 °F /  18.8 °C 29.9in /  1013.0hPa SO 1.8mph /  2.9km/h 5.4mph /  8.7km/h 88.1% 0.15in /  3.9mm
18:09 69.8 °F /  21 °C 66 °F /  18.9 °C 29.9in /  1013.0hPa ONO 2.1mph /  3.4km/h 6mph /  9.7km/h 87.6% 0.1in /  2.6mm
18:14 70.2 °F /  21.2 °C 66.2 °F /  19 °C 29.9in /  1013.0hPa NNO 2.9mph /  4.7km/h 6mph /  9.7km/h 87% 0.08in /  2.1mm
18:19 70.5 °F /  21.4 °C 66.6 °F /  19.2 °C 29.9in /  1013.1hPa North 2.9mph /  4.7km/h 5.9mph /  9.5km/h 86.9% 0.05in /  1.3mm
18:24 70.9 °F /  21.6 °C 66.6 °F /  19.2 °C 29.9in /  1013.1hPa NNO 3.1mph /  5km/h 8.1mph /  13km/h 86.4% 0.04in /  1.1mm
18:29 71.1 °F /  21.7 °C 66.7 °F /  19.3 °C 29.9in /  1013.1hPa NNO 3.5mph /  5.7km/h 9.2mph /  14.8km/h 86% 0.02in /  0.5mm
18:34 71.1 °F /  21.7 °C 66.7 °F /  19.3 °C 29.9in /  1013.1hPa NNO 4.7mph /  7.6km/h 9mph /  14.5km/h 86.3% 0.02in /  0.5mm
18:39 71.4 °F /  21.9 °C 66.9 °F /  19.4 °C 29.9in /  1012.9hPa NNO 4.6mph /  7.4km/h 7mph /  11.3km/h 86% 0.01in /  0.3mm
18:44 71.6 °F /  22 °C 66.9 °F /  19.4 °C 29.9in /  1012.9hPa NNO 4.3mph /  6.9km/h 7mph /  11.3km/h 85.7% 0.01in /  0.3mm
18:49 71.6 °F /  22 °C 66.9 °F /  19.4 °C 29.9in /  1013.0hPa NO 3.8mph /  6.1km/h 5.9mph /  9.5km/h 85% 0.01in /  0.3mm
18:54 71.8 °F /  22.1 °C 67.1 °F /  19.5 °C 29.9in /  1013.0hPa NO 2.4mph /  3.9km/h 6mph /  9.7km/h 85% 0.01in /  0.3mm
18:59 72 °F /  22.2 °C 66.9 °F /  19.4 °C 29.9in /  1013.0hPa ONO 2.6mph /  4.2km/h 6mph /  9.7km/h 84.5% 0in /  0.0mm
19:04 72 °F /  22.2 °C 66.6 °F /  19.2 °C 29.9in /  1013.0hPa ONO 3.1mph /  5km/h 5mph /  8km/h 83.2% 0in /  0.0mm
19:09 72.1 °F /  22.3 °C 66.6 °F /  19.2 °C 29.9in /  1012.9hPa Oeste 3mph /  4.9km/h 5.8mph /  9.3km/h 82.5% 0in /  0.0mm
19:14 72.1 °F /  22.3 °C 66.2 °F /  19 °C 29.9in /  1012.9hPa Oeste 2.9mph /  4.7km/h 6mph /  9.7km/h 81.5% 0in /  0.0mm
19:19 72.1 °F /  22.3 °C 66.4 °F /  19.1 °C 29.9in /  1013.2hPa OSO 2.7mph /  4.4km/h 6mph /  9.7km/h 81.8% 0in /  0.0mm
19:24 72.3 °F /  22.4 °C 66.6 °F /  19.2 °C 29.9in /  1013.2hPa SSO 2.4mph /  3.9km/h 4mph /  6.4km/h 82% 0in /  0.0mm
19:29 72.5 °F /  22.5 °C 66.4 °F /  19.1 °C 29.9in /  1013.2hPa Sur 1.7mph /  2.8km/h 4mph /  6.4km/h 81.3% 0in /  0.0mm
19:34 72.7 °F /  22.6 °C 66.4 °F /  19.1 °C 29.9in /  1013.2hPa Calm   7.4mph /  11.9km/h 80.8% 0in /  0.0mm
19:39 72.9 °F /  22.7 °C 66.4 °F /  19.1 °C 29.9in /  1013.1hPa SSO 1mph /  1.6km/h 7mph /  11.3km/h 80.2% 0in /  0.0mm
19:44 72.9 °F /  22.7 °C 66.7 °F /  19.3 °C 29.9in /  1013.1hPa SSO 3.6mph /  5.8km/h 6mph /  9.7km/h 80.8% 0in /  0.0mm
19:49 73.2 °F /  22.9 °C 67.1 °F /  19.5 °C 29.9in /  1013.1hPa OSO 2.6mph /  4.2km/h 1mph /  1.6km/h 81% 0in /  0.0mm
19:54 73.6 °F /  23.1 °C 67.3 °F /  19.6 °C 29.9in /  1013.0hPa Calm     81% 0in /  0.0mm
19:59 73.8 °F /  23.2 °C 67.1 °F /  19.5 °C 29.9in /  1013.0hPa Calm     79.9% 0in /  0.0mm
20:04 73.9 °F /  23.3 °C 67.3 °F /  19.6 °C 29.9in /  1013.3hPa Calm   5.4mph /  8.7km/h 79.5% 0in /  0.0mm
20:09 74.1 °F /  23.4 °C 67.5 °F /  19.7 °C 29.9in /  1013.3hPa NE 0.4mph /  0.7km/h 6mph /  9.7km/h 79.6% 0in /  0.0mm
20:14 73.9 °F /  23.3 °C 67.5 °F /  19.7 °C 29.9in /  1013.3hPa ESE 1.8mph /  2.9km/h 6mph /  9.7km/h 80% 0in /  0.0mm
20:19 73.9 °F /  23.3 °C 67.6 °F /  19.8 °C 29.9in /  1013.4hPa SE 2mph /  3.2km/h 5.2mph /  8.4km/h 80.9% 0in /  0.0mm
20:24 73.9 °F /  23.3 °C 67.6 °F /  19.8 °C 29.9in /  1013.4hPa SE 2.4mph /  3.9km/h 5.2mph /  8.4km/h 81% 0in /  0.0mm
20:29 73.8 °F /  23.2 °C 67.6 °F /  19.8 °C 29.9in /  1013.4hPa SE 2.6mph /  4.2km/h 5mph /  8km/h 81.3% 0in /  0.0mm
20:34 73.4 °F /  23 °C 67.3 °F /  19.6 °C 29.9in /  1013.4hPa SE 3.1mph /  5km/h 6.9mph /  11.1km/h 81.2% 0in /  0.0mm
20:39 73 °F /  22.8 °C 67.3 °F /  19.6 °C 29.9in /  1013.4hPa ESE 3.4mph /  5.4km/h 7mph /  11.3km/h 81.9% 0in /  0.0mm
20:44 73 °F /  22.8 °C 67.3 °F /  19.6 °C 29.9in /  1013.4hPa ESE 4mph /  6.5km/h 6mph /  9.7km/h 82.2% 0in /  0.0mm
20:49 73 °F /  22.8 °C 67.6 °F /  19.8 °C 29.9in /  1013.5hPa ESE 3.7mph /  6km/h 6mph /  9.7km/h 83% 0in /  0.0mm
20:54 72.9 °F /  22.7 °C 67.5 °F /  19.7 °C 29.9in /  1013.5hPa ESE 3.1mph /  5km/h 6mph /  9.7km/h 82.9% 0in /  0.0mm
20:59 72.9 °F /  22.7 °C 67.5 °F /  19.7 °C 29.9in /  1013.5hPa SE 3.1mph /  5km/h 6mph /  9.7km/h 83% 0in /  0.0mm
21:04 72.9 °F /  22.7 °C 67.1 °F /  19.5 °C 29.9in /  1013.7hPa Este 3.1mph /  5km/h 5.2mph /  8.4km/h 82.4% 0in /  0.0mm
21:09 72.9 °F /  22.7 °C 66.9 °F /  19.4 °C 29.9in /  1013.7hPa ENE 3mph /  4.9km/h 5mph /  8km/h 82% 0in /  0.0mm
21:14 72.9 °F /  22.7 °C 66.9 °F /  19.4 °C 29.9in /  1013.7hPa Este 2.9mph /  4.7km/h 6.2mph /  10km/h 82% 0in /  0.0mm
21:19 72.9 °F /  22.7 °C 66.9 °F /  19.4 °C 29.9in /  1013.8hPa ENE 2.9mph /  4.7km/h 6.9mph /  11.1km/h 82% 0in /  0.0mm
21:24 72.9 °F /  22.7 °C 67.3 °F /  19.6 °C 29.9in /  1013.8hPa Este 3.1mph /  5km/h 7mph /  11.3km/h 82.8% 0in /  0.0mm
21:29 72.9 °F /  22.7 °C 67.3 °F /  19.6 °C 29.9in /  1013.8hPa Este 3.1mph /  5km/h 5.2mph /  8.4km/h 82.8% 0in /  0.0mm
21:34 72.7 °F /  22.6 °C 66.9 °F /  19.4 °C 30in /  1014.2hPa NE 3.1mph /  5km/h 6.4mph /  10.3km/h 82% 0in /  0.0mm
21:39 72.5 °F /  22.5 °C 66.7 °F /  19.3 °C 30in /  1014.2hPa NE 3.4mph /  5.4km/h 8.1mph /  13km/h 82% 0in /  0.0mm
21:44 72.3 °F /  22.4 °C 66.6 °F /  19.2 °C 30in /  1014.2hPa NE 4mph /  6.5km/h 9.7mph /  15.6km/h 82% 0in /  0.0mm
21:49 72.3 °F /  22.4 °C 66.6 °F /  19.2 °C 30in /  1014.6hPa NE 4.5mph /  7.3km/h 10mph /  16.1km/h 82% 0in /  0.0mm
21:54 72.3 °F /  22.4 °C 66.6 °F /  19.2 °C 30in /  1014.6hPa NNE 5.9mph /  9.5km/h 9mph /  14.5km/h 82.3% 0in /  0.0mm
21:59 72 °F /  22.2 °C 66.9 °F /  19.4 °C 30in /  1014.6hPa NE 5.5mph /  8.9km/h 8.5mph /  13.7km/h 83.7% 0in /  0.0mm
22:04 71.8 °F /  22.1 °C 66.7 °F /  19.3 °C 30in /  1014.8hPa NE 4.7mph /  7.6km/h 9mph /  14.5km/h 84% 0in /  0.0mm
22:09 71.8 °F /  22.1 °C 66.7 °F /  19.3 °C 30in /  1014.8hPa NE 4.6mph /  7.4km/h 8.1mph /  13km/h 84% 0in /  0.0mm
22:14 71.8 °F /  22.1 °C 66.7 °F /  19.3 °C 30in /  1014.8hPa ESE 4.3mph /  6.9km/h 8mph /  12.9km/h 84% 0in /  0.0mm
22:19 71.8 °F /  22.1 °C 66.6 °F /  19.2 °C 30in /  1014.8hPa ESE 4.2mph /  6.8km/h 7mph /  11.3km/h 83.6% 0in /  0.0mm
22:24 71.8 °F /  22.1 °C 66.2 °F /  19 °C 30in /  1014.8hPa ESE 4mph /  6.5km/h 6.9mph /  11.1km/h 82.9% 0in /  0.0mm
22:29 71.8 °F /  22.1 °C 66 °F /  18.9 °C 30in /  1014.8hPa ESE 3.9mph /  6.3km/h 7mph /  11.3km/h 82% 0in /  0.0mm
22:34 72 °F /  22.2 °C 65.8 °F /  18.8 °C 30in /  1015.0hPa ESE 3.6mph /  5.8km/h 6mph /  9.7km/h 81.3% 0in /  0.0mm
22:39 72.1 °F /  22.3 °C 66 °F /  18.9 °C 30in /  1015.0hPa ESE 3.3mph /  5.3km/h 5mph /  8km/h 81% 0in /  0.0mm
22:44 72.1 °F /  22.3 °C 66 °F /  18.9 °C 30in /  1015.0hPa NE 2.4mph /  3.9km/h 3mph /  4.8km/h 80.9% 0in /  0.0mm
22:49 72.1 °F /  22.3 °C 66.4 °F /  19.1 °C 30in /  1015.0hPa NE 1.7mph /  2.8km/h   82% 0in /  0.0mm
22:54 72.1 °F /  22.3 °C 66.4 °F /  19.1 °C 30in /  1015.0hPa Calm     82% 0in /  0.0mm
22:59 72.1 °F /  22.3 °C 66.2 °F /  19 °C 30in /  1015.0hPa Calm     82% 0in /  0.0mm
23:04 72 °F /  22.2 °C 66.4 °F /  19.1 °C 30in /  1015.0hPa Calm     82.4% 0in /  0.0mm
23:09 72 °F /  22.2 °C 66.2 °F /  19 °C 30in /  1015.0hPa Calm     82% 0in /  0.0mm
23:14 71.8 °F /  22.1 °C 65.7 °F /  18.7 °C 30in /  1015.0hPa Calm     81.2% 0in /  0.0mm
23:19 71.8 °F /  22.1 °C 65.8 °F /  18.8 °C 30in /  1015.1hPa Calm     81.5% 0in /  0.0mm
23:24 71.8 °F /  22.1 °C 65.8 °F /  18.8 °C 30in /  1015.1hPa Calm     81.6% 0in /  0.0mm
23:29 71.8 °F /  22.1 °C 66 °F /  18.9 °C 30in /  1015.1hPa Calm   4mph /  6.4km/h 82% 0in /  0.0mm
23:34 71.8 °F /  22.1 °C 66.2 °F /  19 °C 30in /  1015.2hPa Calm   5mph /  8km/h 83% 0in /  0.0mm
23:39 71.6 °F /  22 °C 66 °F /  18.9 °C 30in /  1015.2hPa Sur 0.8mph /  1.3km/h 5.2mph /  8.4km/h 82.2% 0in /  0.0mm
23:44 71.8 °F /  22.1 °C 66 °F /  18.9 °C 30in /  1015.2hPa SSE 2.9mph /  4.7km/h 5mph /  8km/h 82.3% 0in /  0.0mm
23:49 71.8 °F /  22.1 °C 65.8 °F /  18.8 °C 30in /  1015.2hPa ENE 2.6mph /  4.2km/h 4.7mph /  7.6km/h 81.6% 0in /  0.0mm
23:54 71.8 °F /  22.1 °C 65.7 °F /  18.7 °C 30in /  1015.2hPa North 1.8mph /  2.9km/h 5mph /  8km/h 81.3% 0in /  0.0mm
23:59 71.6 °F /  22 °C 65.5 °F /  18.6 °C 30in /  1015.2hPa NE 1.7mph /  2.7km/h 3mph /  4.8km/h 81% 0in /  0.0mm
Murcia-Puente Tocinos, España
Compliments of Weather Underground - 3 mb

La estación de MeteoMurcia.com, publica sus datos en los siguientes proyectos:

Weather Underground PWS IMURCIAP2 Meteoclimatic www.awekas.at

W3Counter
Web Analytics